Vision of The Seas — C6SE8 — position and weather

sailwx.info

Track history (hours):
 
Tides and Currents Weather Stations Pressure Air Temp Water Temp Dewpoint Dewpoint Depression Visibility Wind Speed Wind Dir Waves Ship Positions

Vision of The Seas

Operator: Royal Caribbean Cruises Ltd

Last reported at 2018-Dec-11 09:00 UTC. Time now 2018-Dec-13 13:44 UTC.
Position N 10°06' W 076°54'.

Type: Passenger vessel. MMSI: 311321000.

Wind from 040 at 25 knots

Barometer 1012.1 mb
Air temperature 26.0 ° C
Dewpoint 24.6 ° C
Water temperature 25.0 ° C

Date/timePositionNaut miles runAvg speedWind from/ knotsBaromVisibWave heightAir tempDewpointWater temp
2018-Dec-11 09:00N 10°06' W 076°54'17219.2 040 / 251012.1 26.024.625.0
2018-Dec-11 00:03N 09°36' W 079°46'120.8
2018-Dec-10 23:59N 09°35' W 079°46'1020.5
2018-Dec-10 23:30N 09°28' W 079°53'612.7
2018-Dec-10 23:00N 09°22' W 079°53'0 0.4
2018-Dec-10 22:29N 09°22' W 079°53'0 0.0
2018-Dec-10 21:59N 09°22' W 079°53'0 0.0
2018-Dec-10 21:29N 09°22' W 079°53'0 0.0
2018-Dec-10 20:59N 09°22' W 079°53'0 0.0
2018-Dec-10 20:29N 09°22' W 079°53'0 0.0
2018-Dec-10 19:59N 09°22' W 079°53'0 0.0
2018-Dec-10 19:29N 09°22' W 079°53'0 0.0
2018-Dec-10 18:59N 09°22' W 079°53'0 0.0
2018-Dec-10 18:29N 09°22' W 079°53'0 0.0
2018-Dec-10 17:59N 09°22' W 079°53'0 0.0
2018-Dec-10 17:29N 09°22' W 079°53'0 0.0
2018-Dec-10 16:59N 09°22' W 079°53'0 0.0
2018-Dec-10 16:29N 09°22' W 079°53'0 0.0
2018-Dec-10 15:59N 09°22' W 079°53'0 0.0
2018-Dec-10 15:29N 09°22' W 079°53'0 0.0
2018-Dec-10 14:59N 09°22' W 079°53'0 0.0
2018-Dec-10 14:29N 09°22' W 079°53'0 0.0
2018-Dec-10 13:59N 09°22' W 079°53'0 0.0
2018-Dec-10 13:29N 09°22' W 079°53'0 0.0
2018-Dec-10 12:59N 09°22' W 079°53'0 0.0
2018-Dec-10 12:29N 09°22' W 079°53'0 0.0
2018-Dec-10 11:59N 09°22' W 079°53'0 0.0
2018-Dec-10 11:29N 09°22' W 079°53'0 0.0
2018-Dec-10 10:59N 09°22' W 079°53'1 1.1
2018-Dec-10 10:30N 09°22' W 079°54'2 4.9
2018-Dec-10 10:01N 09°24' W 079°54'5 9.9
2018-Dec-10 09:30N 09°29' W 079°53'510.1
2018-Dec-10 09:01N 09°34' W 079°53'5 9.9
2018-Dec-10 08:30N 09°39' W 079°52'5 9.0
2018-Dec-10 08:00N 09°44' W 079°52'8 0.9
2018-Dec-09 23:19N 09°38' W 079°57'2 6.5
2018-Dec-09 23:00N 09°36' W 079°56'3 6.4
2018-Dec-09 22:30N 09°33' W 079°55'3 6.4
2018-Dec-09 22:01N 09°29' W 079°55'3 6.6
2018-Dec-09 21:31N 09°26' W 079°55'4 7.0
2018-Dec-09 21:01N 09°23' W 079°55'4 8.2
2018-Dec-09 20:30N 09°19' W 079°55'2 3.9
2018-Dec-09 20:00N 09°17' W 079°55'0 0.4
2018-Dec-09 19:31N 09°16' W 079°55'0 0.5
2018-Dec-09 19:00N 09°16' W 079°55'1 1.8
2018-Dec-09 18:31N 09°15' W 079°55'4 6.8
2018-Dec-09 18:00N 09°12' W 079°54'6 8.1
2018-Dec-09 17:17N 09°10' W 079°49'55 6.6
2018-Dec-09 09:00N 08°24' W 079°18'343 7.1 360 / 101014.1 27.025.727.0
2018-Dec-07 09:00N 09°24' W 085°00'3612.0 350 / 51014.1 25.023.623.0
2018-Dec-07 06:00N 09°30' W 085°36'50510.3 340 / 151016.127.0 25.022.227.0
2018-Dec-05 05:00N 14°06' W 092°48'43218.8 210 / 71015.1 27.024.328.0
2018-Dec-04 06:00N 16°36' W 099°48'38816.9 190 / 51015.110.8 27.024.329.0
2018-Dec-03 07:00N 20°00' W 105°36'   010 / 121015.1 24.019.627.0
Track history (hours):
 
Tides and Currents Weather Stations Pressure Air Temp Water Temp Dewpoint Dewpoint Depression Visibility Wind Speed Wind Dir Waves Ship Positions

Vision of The Seas

Operator: Royal Caribbean Cruises Ltd

Last reported at 2018-Dec-11 09:00 UTC. Time now 2018-Dec-13 13:44 UTC.
Position N 10°06' W 076°54'.

Type: Passenger vessel. MMSI: 311321000.

Wind from 040 at 25 knots

Barometer 1012.1 mb
Air temperature 26.0 ° C
Dewpoint 24.6 ° C
Water temperature 25.0 ° C

Date/timePositionNaut miles runAvg speedWind from/ knotsBaromVisibWave heightAir tempDewpointWater temp
2018-Dec-11 09:00N 10°06' W 076°54'17219.2 040 / 251012.1 26.024.625.0
2018-Dec-11 00:03N 09°36' W 079°46'120.8
2018-Dec-10 23:59N 09°35' W 079°46'1020.5
2018-Dec-10 23:30N 09°28' W 079°53'612.7
2018-Dec-10 23:00N 09°22' W 079°53'0 0.4
2018-Dec-10 22:29N 09°22' W 079°53'0 0.0
2018-Dec-10 21:59N 09°22' W 079°53'0 0.0
2018-Dec-10 21:29N 09°22' W 079°53'0 0.0
2018-Dec-10 20:59N 09°22' W 079°53'0 0.0
2018-Dec-10 20:29N 09°22' W 079°53'0 0.0
2018-Dec-10 19:59N 09°22' W 079°53'0 0.0
2018-Dec-10 19:29N 09°22' W 079°53'0 0.0
2018-Dec-10 18:59N 09°22' W 079°53'0 0.0
2018-Dec-10 18:29N 09°22' W 079°53'0 0.0
2018-Dec-10 17:59N 09°22' W 079°53'0 0.0
2018-Dec-10 17:29N 09°22' W 079°53'0 0.0
2018-Dec-10 16:59N 09°22' W 079°53'0 0.0
2018-Dec-10 16:29N 09°22' W 079°53'0 0.0
2018-Dec-10 15:59N 09°22' W 079°53'0 0.0
2018-Dec-10 15:29N 09°22' W 079°53'0 0.0
2018-Dec-10 14:59N 09°22' W 079°53'0 0.0
2018-Dec-10 14:29N 09°22' W 079°53'0 0.0
2018-Dec-10 13:59N 09°22' W 079°53'0 0.0
2018-Dec-10 13:29N 09°22' W 079°53'0 0.0
2018-Dec-10 12:59N 09°22' W 079°53'0 0.0
2018-Dec-10 12:29N 09°22' W 079°53'0 0.0
2018-Dec-10 11:59N 09°22' W 079°53'0 0.0
2018-Dec-10 11:29N 09°22' W 079°53'0 0.0
2018-Dec-10 10:59N 09°22' W 079°53'1 1.1
2018-Dec-10 10:30N 09°22' W 079°54'2 4.9
2018-Dec-10 10:01N 09°24' W 079°54'5 9.9
2018-Dec-10 09:30N 09°29' W 079°53'510.1
2018-Dec-10 09:01N 09°34' W 079°53'5 9.9
2018-Dec-10 08:30N 09°39' W 079°52'5 9.0
2018-Dec-10 08:00N 09°44' W 079°52'8 0.9
2018-Dec-09 23:19N 09°38' W 079°57'2 6.5
2018-Dec-09 23:00N 09°36' W 079°56'3 6.4
2018-Dec-09 22:30N 09°33' W 079°55'3 6.4
2018-Dec-09 22:01N 09°29' W 079°55'3 6.6
2018-Dec-09 21:31N 09°26' W 079°55'4 7.0
2018-Dec-09 21:01N 09°23' W 079°55'4 8.2
2018-Dec-09 20:30N 09°19' W 079°55'2 3.9
2018-Dec-09 20:00N 09°17' W 079°55'0 0.4
2018-Dec-09 19:31N 09°16' W 079°55'0 0.5
2018-Dec-09 19:00N 09°16' W 079°55'1 1.8
2018-Dec-09 18:31N 09°15' W 079°55'4 6.8
2018-Dec-09 18:00N 09°12' W 079°54'6 8.1
2018-Dec-09 17:17N 09°10' W 079°49'55 6.6
2018-Dec-09 09:00N 08°24' W 079°18'343 7.1 360 / 101014.1 27.025.727.0
2018-Dec-07 09:00N 09°24' W 085°00'3612.0 350 / 51014.1 25.023.623.0
2018-Dec-07 06:00N 09°30' W 085°36'50510.3 340 / 151016.127.0 25.022.227.0
2018-Dec-05 05:00N 14°06' W 092°48'43218.8 210 / 71015.1 27.024.328.0
2018-Dec-04 06:00N 16°36' W 099°48'38816.9 190 / 51015.110.8 27.024.329.0
2018-Dec-03 07:00N 20°00' W 105°36'   010 / 121015.1 24.019.627.0

Dump ship's entire track history